createdAt,value
2023-01-29T00:00:39.449Z,93.70
2023-01-29T00:04:41.385Z,93.60
2023-01-29T00:08:43.234Z,93.80
2023-01-29T00:12:45.064Z,93.60
2023-01-29T00:16:46.889Z,93.90
2023-01-29T00:20:49.015Z,93.60
2023-01-29T00:24:51.017Z,93.90
2023-01-29T00:28:53.131Z,93.60
2023-01-29T00:32:55.023Z,93.90
2023-01-29T00:37:04.744Z,94.10
2023-01-29T00:41:30.384Z,93.90
2023-01-29T00:45:32.349Z,93.50
2023-01-29T00:49:34.167Z,93.30
2023-01-29T00:53:36.020Z,93.10
2023-01-29T00:57:38.919Z,93.00
2023-01-29T01:02:16.067Z,92.80
2023-01-29T01:06:18.263Z,92.80
2023-01-29T01:10:30.089Z,93.20
2023-01-29T01:14:36.068Z,92.80
2023-01-29T01:18:38.895Z,93.10
2023-01-29T01:22:41.223Z,92.60
2023-01-29T01:26:43.077Z,92.70
2023-01-29T01:30:45.464Z,92.60
2023-01-29T01:34:47.483Z,92.70
2023-01-29T01:38:49.450Z,92.60
2023-01-29T01:42:56.884Z,92.70
2023-01-29T01:47:01.733Z,92.40
2023-01-29T01:51:06.517Z,92.20
2023-01-29T01:55:12.111Z,92.30
2023-01-29T01:59:17.178Z,92.40
2023-01-29T02:03:40.227Z,92.10
2023-01-29T02:08:04.092Z,92.40
2023-01-29T02:12:08.958Z,91.90
2023-01-29T02:16:10.908Z,91.80
2023-01-29T02:20:25.374Z,91.90
2023-01-29T02:24:52.131Z,91.70
2023-01-29T02:29:33.721Z,91.70
2023-01-29T02:33:58.961Z,91.80
2023-01-29T02:38:17.965Z,92.50
2023-01-29T02:42:32.407Z,92.30
2023-01-29T02:46:46.421Z,93.70
2023-01-29T02:51:06.999Z,94.20
2023-01-29T02:55:22.740Z,93.30
2023-01-29T02:59:45.916Z,92.30
2023-01-29T03:03:58.958Z,93.00
2023-01-29T03:08:10.293Z,93.60
2023-01-29T03:12:35.176Z,94.50
2023-01-29T03:16:48.776Z,94.60
2023-01-29T03:20:58.857Z,95.00
2023-01-29T03:25:21.730Z,94.80
2023-01-29T03:29:43.312Z,94.60
2023-01-29T03:33:47.724Z,93.60
2023-01-29T03:37:49.843Z,93.50
2023-01-29T03:42:00.691Z,93.20
2023-01-29T03:46:19.205Z,93.30
2023-01-29T03:50:32.263Z,93.10
2023-01-29T03:55:06.988Z,93.30
2023-01-29T03:59:33.092Z,93.40
2023-01-29T04:04:02.175Z,93.20
2023-01-29T04:08:10.191Z,93.10
2023-01-29T04:12:16.915Z,92.80
2023-01-29T04:16:27.208Z,92.60
2023-01-29T04:20:48.250Z,92.40
2023-01-29T04:24:51.310Z,92.70
2023-01-29T04:28:59.354Z,92.90
2023-01-29T04:33:29.346Z,92.60
2023-01-29T04:37:56.245Z,92.20
2023-01-29T04:42:15.654Z,92.20
2023-01-29T04:46:29.427Z,92.70
2023-01-29T04:50:53.235Z,93.30
2023-01-29T04:54:57.835Z,92.90
2023-01-29T04:59:05.018Z,92.50
2023-01-29T05:03:09.863Z,92.50
2023-01-29T05:07:14.866Z,93.00
2023-01-29T05:11:18.669Z,93.00
2023-01-29T05:15:26.000Z,93.60
2023-01-29T05:19:28.034Z,93.00
2023-01-29T05:23:30.232Z,92.10
2023-01-29T05:27:54.084Z,91.90
2023-01-29T05:31:56.071Z,92.10
2023-01-29T05:35:59.858Z,91.70
2023-01-29T05:40:01.763Z,91.40
2023-01-29T05:44:03.759Z,91.00
2023-01-29T05:48:05.861Z,91.00
2023-01-29T05:52:07.829Z,91.00
2023-01-29T05:56:09.719Z,91.50
2023-01-29T06:00:13.082Z,91.10
2023-01-29T06:04:15.009Z,90.80
2023-01-29T06:08:16.938Z,90.80
2023-01-29T06:12:18.926Z,90.70
2023-01-29T06:16:20.991Z,91.00
2023-01-29T06:20:23.643Z,91.20
2023-01-29T06:24:25.617Z,91.30
2023-01-29T06:28:27.632Z,91.20
2023-01-29T06:32:29.586Z,91.20
2023-01-29T06:36:31.556Z,91.30
2023-01-29T06:40:33.575Z,91.40
2023-01-29T06:44:35.569Z,91.20
2023-01-29T06:48:37.486Z,90.70
2023-01-29T06:52:39.445Z,90.90
2023-01-29T06:56:41.386Z,91.00
2023-01-29T07:00:43.807Z,91.10
2023-01-29T07:04:45.708Z,91.20
2023-01-29T07:08:47.697Z,91.40
2023-01-29T07:12:49.589Z,91.60
2023-01-29T07:16:51.524Z,91.30
2023-01-29T07:20:53.568Z,91.30
2023-01-29T07:24:55.439Z,91.30
2023-01-29T07:28:57.280Z,90.80
2023-01-29T07:33:08.205Z,90.60
2023-01-29T07:37:10.001Z,90.60
2023-01-29T07:41:12.557Z,91.00
2023-01-29T07:45:14.546Z,91.20
2023-01-29T07:49:16.609Z,90.80
2023-01-29T07:53:18.380Z,91.10
2023-01-29T07:57:20.185Z,91.40
2023-01-29T08:01:22.138Z,91.40
2023-01-29T08:05:23.936Z,91.60
2023-01-29T08:09:25.710Z,91.20
2023-01-29T08:13:27.679Z,91.20
2023-01-29T08:17:29.615Z,91.30
2023-01-29T08:21:31.414Z,91.10
2023-01-29T08:25:34.060Z,91.00
2023-01-29T08:29:36.372Z,91.10
2023-01-29T08:33:39.442Z,90.60
2023-01-29T08:37:41.409Z,90.60
2023-01-29T08:41:43.227Z,90.70
2023-01-29T08:45:45.419Z,90.50
2023-01-29T08:49:47.578Z,90.80
2023-01-29T08:53:50.651Z,90.70
2023-01-29T08:57:52.617Z,90.60
2023-01-29T09:01:54.385Z,90.30
2023-01-29T09:05:56.159Z,90.80
2023-01-29T09:09:57.966Z,90.50
2023-01-29T09:13:59.769Z,90.60
2023-01-29T09:18:05.506Z,90.50
2023-01-29T09:22:07.483Z,90.20
2023-01-29T09:26:09.543Z,90.10
2023-01-29T09:30:12.033Z,90.10
2023-01-29T09:34:14.283Z,89.90
2023-01-29T09:38:16.246Z,90.00
2023-01-29T09:42:30.517Z,90.10
2023-01-29T09:46:47.983Z,90.10
2023-01-29T09:50:53.101Z,90.00
2023-01-29T09:55:05.770Z,90.30
2023-01-29T09:59:12.086Z,90.60
2023-01-29T10:03:35.924Z,90.90
2023-01-29T10:08:19.866Z,90.00
2023-01-29T10:12:33.801Z,89.30
2023-01-29T10:16:54.840Z,89.60
2023-01-29T10:21:15.522Z,90.10
2023-01-29T10:25:20.401Z,90.50
2023-01-29T10:29:22.926Z,90.00
2023-01-29T10:33:49.275Z,90.10
2023-01-29T10:38:02.219Z,89.10
2023-01-29T10:42:26.186Z,88.20
2023-01-29T10:46:52.926Z,89.10
2023-01-29T10:51:14.684Z,88.30
2023-01-29T10:55:19.534Z,89.80
2023-01-29T10:59:44.674Z,89.70
2023-01-29T11:03:54.709Z,90.10
2023-01-29T11:08:21.041Z,90.70
2023-01-29T11:12:30.314Z,89.10
2023-01-29T11:16:39.607Z,88.30
2023-01-29T11:20:43.602Z,89.60
2023-01-29T11:24:46.101Z,88.10
2023-01-29T11:28:50.505Z,88.00
2023-01-29T11:33:25.648Z,87.30
2023-01-29T11:37:32.630Z,87.90
2023-01-29T11:41:53.916Z,88.00
2023-01-29T11:46:11.603Z,89.50
2023-01-29T11:50:23.026Z,88.90
2023-01-29T11:54:31.255Z,89.50
2023-01-29T11:58:35.408Z,88.00
2023-01-29T12:02:43.641Z,87.40
2023-01-29T12:06:49.071Z,88.40
2023-01-29T12:10:51.603Z,87.50
2023-01-29T12:15:16.055Z,89.20
2023-01-29T12:19:48.440Z,88.20
2023-01-29T12:24:15.192Z,88.90
2023-01-29T12:28:42.751Z,87.20
2023-01-29T12:33:15.031Z,88.70
2023-01-29T12:37:51.524Z,87.20
2023-01-29T12:42:10.443Z,87.50
2023-01-29T12:46:25.067Z,88.30
2023-01-29T12:50:30.029Z,87.30
2023-01-29T12:54:39.412Z,87.60
2023-01-29T12:58:52.932Z,88.80
2023-01-29T13:03:03.521Z,88.30
2023-01-29T13:07:14.807Z,89.10
2023-01-29T13:11:22.536Z,88.10
2023-01-29T13:15:55.516Z,88.10
2023-01-29T13:20:18.024Z,89.00
2023-01-29T13:24:23.921Z,89.10
2023-01-29T13:28:27.208Z,88.80
2023-01-29T13:32:31.564Z,88.80
2023-01-29T13:36:34.764Z,87.10
2023-01-29T13:40:36.845Z,88.10
2023-01-29T13:44:40.763Z,87.90
2023-01-29T13:48:47.836Z,87.90
2023-01-29T13:53:04.853Z,89.30
2023-01-29T13:57:26.809Z,89.10
2023-01-29T14:01:47.194Z,89.00
2023-01-29T14:05:55.340Z,88.70
2023-01-29T14:10:24.191Z,88.40
2023-01-29T14:14:48.210Z,88.60
2023-01-29T14:18:58.758Z,88.20
2023-01-29T14:23:01.996Z,89.10
2023-01-29T14:27:05.032Z,89.30
2023-01-29T14:31:07.620Z,89.50
2023-01-29T14:35:20.598Z,90.30
2023-01-29T14:39:28.448Z,90.60
2023-01-29T14:43:30.599Z,90.90
2023-01-29T14:47:38.430Z,90.30
2023-01-29T14:51:44.523Z,90.10
2023-01-29T14:55:59.835Z,89.00
2023-01-29T15:00:13.204Z,88.40
2023-01-29T15:04:21.549Z,89.60
2023-01-29T15:08:30.114Z,90.00
2023-01-29T15:12:41.852Z,90.00
2023-01-29T15:16:45.923Z,89.10
2023-01-29T15:20:47.953Z,87.90
2023-01-29T15:25:14.374Z,87.40
2023-01-29T15:29:25.904Z,87.10
2023-01-29T15:33:28.557Z,87.60
2023-01-29T15:37:33.503Z,88.80
2023-01-29T15:41:35.822Z,88.50
2023-01-29T15:45:40.777Z,88.70
2023-01-29T15:49:45.155Z,89.20
2023-01-29T15:53:58.690Z,89.90
2023-01-29T15:58:01.304Z,90.10
2023-01-29T16:02:32.924Z,89.50
2023-01-29T16:06:40.887Z,89.20
2023-01-29T16:10:45.103Z,89.70
2023-01-29T16:14:48.526Z,90.30
2023-01-29T16:19:00.015Z,90.40
2023-01-29T16:23:02.767Z,90.00
2023-01-29T16:27:13.022Z,89.80
2023-01-29T16:31:27.248Z,89.90
2023-01-29T16:35:29.356Z,90.20
2023-01-29T16:39:38.261Z,90.20
2023-01-29T16:43:49.005Z,90.30
2023-01-29T16:48:01.490Z,90.00
2023-01-29T16:52:26.345Z,90.20
2023-01-29T16:56:32.349Z,90.30
2023-01-29T17:00:34.458Z,90.40
2023-01-29T17:04:36.418Z,90.50
2023-01-29T17:08:41.325Z,90.20
2023-01-29T17:12:52.630Z,90.30
2023-01-29T17:17:01.312Z,90.40
2023-01-29T17:21:03.313Z,90.40
2023-01-29T17:25:05.983Z,90.40
2023-01-29T17:29:17.638Z,90.60
2023-01-29T17:33:23.446Z,90.60
2023-01-29T17:37:25.490Z,90.50
2023-01-29T17:41:30.154Z,90.60
2023-01-29T17:45:32.176Z,90.70
2023-01-29T17:49:34.279Z,90.70
2023-01-29T17:53:45.466Z,90.90
2023-01-29T17:57:48.183Z,90.50
2023-01-29T18:01:50.800Z,90.50
2023-01-29T18:05:52.744Z,90.60
2023-01-29T18:09:54.811Z,90.90
2023-01-29T18:13:57.369Z,90.80
2023-01-29T18:17:59.403Z,90.90
2023-01-29T18:22:01.372Z,90.80
2023-01-29T18:26:03.572Z,90.60
2023-01-29T18:30:06.577Z,90.80
2023-01-29T18:34:08.757Z,90.70
2023-01-29T18:38:10.860Z,90.80
2023-01-29T18:42:12.970Z,90.80
2023-01-29T18:46:14.956Z,91.00
2023-01-29T18:50:17.212Z,91.50
2023-01-29T18:54:20.348Z,91.20
2023-01-29T18:58:28.080Z,91.20
2023-01-29T19:02:35.985Z,91.20
2023-01-29T19:06:38.104Z,91.60
2023-01-29T19:10:40.689Z,91.60
2023-01-29T19:14:42.636Z,91.60
2023-01-29T19:18:44.669Z,91.80
2023-01-29T19:22:47.165Z,91.70
2023-01-29T19:26:49.738Z,91.70
2023-01-29T19:30:51.706Z,91.50
2023-01-29T19:34:53.714Z,91.50
2023-01-29T19:38:55.766Z,91.70
2023-01-29T19:42:58.422Z,91.50
2023-01-29T19:47:00.490Z,91.40
2023-01-29T19:51:09.907Z,91.40
2023-01-29T19:55:11.864Z,91.30
2023-01-29T19:59:14.045Z,91.30
2023-01-29T20:03:16.154Z,91.80
2023-01-29T20:07:21.307Z,92.10
2023-01-29T20:11:23.984Z,91.70
2023-01-29T20:15:25.970Z,91.90
2023-01-29T20:19:27.982Z,92.10
2023-01-29T20:23:37.757Z,92.20
2023-01-29T20:27:40.363Z,92.00
2023-01-29T20:31:42.425Z,92.20
2023-01-29T20:35:44.447Z,92.00
2023-01-29T20:39:46.987Z,91.90
2023-01-29T20:43:50.845Z,92.10
2023-01-29T20:47:52.850Z,92.40
2023-01-29T20:51:54.795Z,92.00
2023-01-29T20:55:56.741Z,91.70
2023-01-29T20:59:58.887Z,91.80
2023-01-29T21:04:00.842Z,91.50
2023-01-29T21:08:02.776Z,91.60
2023-01-29T21:12:05.491Z,91.50
2023-01-29T21:16:08.484Z,91.60
2023-01-29T21:20:11.094Z,91.60
2023-01-29T21:24:15.132Z,91.70
2023-01-29T21:28:17.350Z,92.10
2023-01-29T21:32:19.335Z,92.00
2023-01-29T21:36:21.463Z,91.90
2023-01-29T21:40:25.350Z,92.20
2023-01-29T21:44:27.276Z,92.30
2023-01-29T21:48:29.281Z,91.90
2023-01-29T21:52:31.350Z,91.80
2023-01-29T21:56:33.263Z,91.70
2023-01-29T22:00:35.141Z,91.60
2023-01-29T22:04:37.088Z,91.80
2023-01-29T22:08:39.629Z,91.60
2023-01-29T22:12:41.512Z,91.50
2023-01-29T22:16:43.385Z,91.30
2023-01-29T22:20:45.188Z,91.40
2023-01-29T22:24:47.054Z,91.60
2023-01-29T22:28:49.142Z,91.40
2023-01-29T22:32:51.371Z,91.30
2023-01-29T22:36:53.818Z,91.00
2023-01-29T22:40:57.003Z,91.60
2023-01-29T22:44:59.040Z,91.40
2023-01-29T22:49:00.982Z,91.40
2023-01-29T22:53:03.003Z,91.50
2023-01-29T22:57:05.714Z,91.90
2023-01-29T23:01:08.985Z,91.80
2023-01-29T23:05:10.903Z,91.20
2023-01-29T23:09:13.063Z,91.10
2023-01-29T23:13:15.077Z,91.60
2023-01-29T23:17:17.119Z,91.30
2023-01-29T23:21:20.095Z,91.30
2023-01-29T23:25:22.126Z,91.10
2023-01-29T23:29:24.050Z,90.90
2023-01-29T23:33:26.048Z,90.90
2023-01-29T23:37:28.014Z,91.10
2023-01-29T23:41:30.004Z,91.10
2023-01-29T23:45:31.967Z,91.20
2023-01-29T23:49:33.977Z,91.30
2023-01-29T23:53:35.901Z,91.40
2023-01-29T23:57:37.839Z,91.40
